Terminal Aerodrome Forecast
Issued by NWS

Home | Current Version | Previous Version | Text Only | Print | Product List | Glossary On
Versions: 1 2 3 4 5 6 7 8 9 10
872
FTUS44 KLIX 062320
TAFGPT
TAF
KGPT 062320Z 0700/0724 VRB05KT P6SM BKN110
     FM070230 36004KT P6SM SCT250
     FM072100 30006KT P6SM FEW250=

USA.gov is the U.S. government's official web portal to all federal, state and local government web resources and services.